ACRAWX current weather conditions

sailwx.info

Wind from 092 at 1 knots gusting 3

Air temperature 25.1° C
Dewpoint 22.1° C
Water temperature -7999.0° C

Last reported at 2019-Jul-18 15:30 UTC.
Time now 2019-Jul-18 17:15 UTC

Location: N 27°07' W 080°26'.
View on Google Maps.

See reports from other nearby stations

  
Tides and Currents Weather Stations Pressure Air Temp Water Temp Dewpoint Dewpoint Depression Visibility Wind Speed Wind Dir Waves Ship Positions
date/time (UTC)wind fromknots sea level pressurealtimeterstation pressurevisibilityair tempwater tempwave heightnotes
2019-Jul-18 15:30 092 1 gusting 3 25.1-7999.0
2019-Jul-18 15:15 161 4 gusting 7 24.9-7999.0
2019-Jul-18 14:45 173 6 gusting 12 25.9-7999.0
2019-Jul-18 14:30 059 1 gusting 2 26.8-7999.0
2019-Jul-18 14:15 066 2 gusting 4 26.7-7999.0
2019-Jul-18 13:45 070 3 gusting 3 25.7-7999.0
2019-Jul-18 13:30 229 2 gusting 3 25.4-7999.0
2019-Jul-18 13:15 332 2 gusting 2 25.0-7999.0
2019-Jul-18 13:00 272 2 gusting 3 24.8-7999.0
2019-Jul-18 12:45 335 2 gusting 3 24.7-7999.0
2019-Jul-18 12:30 328 3 gusting 4 24.7-7999.0
2019-Jul-18 12:15 327 2 gusting 4 24.3-7999.0
2019-Jul-18 12:00 301 2 gusting 4 23.4-7999.0
2019-Jul-18 11:45 310 3 gusting 4 22.9-7999.0
2019-Jul-18 11:30 303 2 gusting 3 21.9-7999.0
2019-Jul-18 11:15 328 3 gusting 4 21.2-7999.0
2019-Jul-18 10:45 328 3 gusting 3 20.6-7999.0
2019-Jul-18 10:30 335 2 gusting 3 20.5-7999.0
2019-Jul-18 10:15 316 3 gusting 3 20.6-7999.0
2019-Jul-18 09:45 307 1 gusting 2 20.5-7999.0
2019-Jul-18 09:30 263 0 gusting 1 20.7-7999.0
2019-Jul-18 09:15 090 0 gusting 2 21.2-7999.0
2019-Jul-18 09:00 109 2 gusting 3 21.3-7999.0
2019-Jul-18 08:45 139 0 gusting 1 21.2-7999.0
2019-Jul-18 08:30 220 21.3-7999.0
2019-Jul-18 08:00 130 0 gusting 1 21.8-7999.0
2019-Jul-18 07:45 161 1 gusting 1 22.1-7999.0
2019-Jul-18 07:30 135 1 gusting 2 22.8-7999.0
2019-Jul-18 07:00 145 2 gusting 3 23.3-7999.0
2019-Jul-18 06:45 131 3 gusting 3 23.4-7999.0
2019-Jul-18 06:30 139 2 gusting 3 23.7-7999.0
2019-Jul-18 06:15 156 2 gusting 3 23.7-7999.0
2019-Jul-18 06:00 182 2 gusting 4 23.9-7999.0
2019-Jul-18 05:45 189 2 gusting 3 23.5-7999.0
2019-Jul-18 05:30 128 2 gusting 3 23.4-7999.0
2019-Jul-18 05:15 151 2 gusting 3 22.8-7999.0
2019-Jul-18 05:00 152 1 gusting 2 22.9-7999.0
2019-Jul-18 04:45 101 2 gusting 3 23.0-7999.0
2019-Jul-18 04:30 077 0 gusting 2 23.0-7999.0
2019-Jul-18 04:15 093 1 gusting 1 23.6-7999.0
2019-Jul-18 04:00 082 2 gusting 3 24.0-7999.0
2019-Jul-18 03:45 083 3 gusting 3 24.1-7999.0
2019-Jul-18 03:30 079 3 gusting 3 24.2-7999.0
2019-Jul-18 03:15 075 2 gusting 2 24.4-7999.0
2019-Jul-18 03:00 076 2 gusting 3 24.9-7999.0
2019-Jul-18 02:45 088 2 gusting 4 25.3-7999.0
2019-Jul-18 02:30 119 4 gusting 6 25.3-7999.0
2019-Jul-18 02:15 096 5 gusting 6 25.2-7999.0
2019-Jul-18 02:00 080 3 gusting 4 25.4-7999.0
2019-Jul-18 01:45 096 3 gusting 5 25.9-7999.0
2019-Jul-18 01:30 106 4 gusting 5 26.3-7999.0
2019-Jul-18 01:15 108 4 gusting 5 26.5-7999.0
2019-Jul-18 00:45 105 4 gusting 6 27.2-7999.0
2019-Jul-18 00:30 107 5 gusting 6 27.6-7999.0
2019-Jul-18 00:15 113 5 gusting 6 28.1-7999.0
2019-Jul-18 00:00 104 5 gusting 8 28.8-7999.0
2019-Jul-17 23:45 105 6 gusting 9 29.2-7999.0
2019-Jul-17 23:30 110 7 gusting 10 30.0-7999.0
2019-Jul-17 23:15 088 6 gusting 10 30.6-7999.0
2019-Jul-17 22:45 101 7 gusting 10 31.1-7999.0
2019-Jul-17 22:30 098 8 gusting 11 31.3-7999.0
2019-Jul-17 22:15 093 6 gusting 10 30.1-7999.0
2019-Jul-17 22:00 091 6 gusting 10 30.3-7999.0
2019-Jul-17 21:45 093 7 gusting 10 31.5-7999.0
2019-Jul-17 21:30 142 4 gusting 9 32.5-7999.0
2019-Jul-17 21:15 298 4 gusting 8 32.1-7999.0
2019-Jul-17 21:00 288 5 gusting 9 32.2-7999.0
2019-Jul-17 20:45 277 3 gusting 5 31.5-7999.0
2019-Jul-17 20:30 188 2 gusting 4 32.2-7999.0
2019-Jul-17 20:15 232 1 gusting 5 32.6-7999.0
2019-Jul-17 19:45 238 4 gusting 9 31.7-7999.0
2019-Jul-17 19:30 220 1 gusting 5 30.8-7999.0
2019-Jul-17 19:15 167 5 gusting 8 31.0-7999.0
2019-Jul-17 18:45 136 8 gusting 11 32.2-7999.0
2019-Jul-17 18:30 123 7 gusting 10 32.3-7999.0
2019-Jul-17 18:15 115 6 gusting 10 32.0-7999.0
2019-Jul-17 17:45 086 7 gusting 11 31.3-7999.0
2019-Jul-17 17:30 065 8 gusting 11 31.3-7999.0
2019-Jul-17 17:15 077 7 gusting 9 31.5-7999.0
2019-Jul-17 16:45 120 2 gusting 5 31.9-7999.0
2019-Jul-17 16:30 171 3 gusting 5 31.9-7999.0
2019-Jul-17 16:15 167 3 gusting 7 31.8-7999.0
2019-Jul-17 15:45 143 4 gusting 7 31.6-7999.0
2019-Jul-17 15:30 133 4 gusting 7 31.2-7999.0
2019-Jul-17 15:15 140 4 gusting 7 31.1-7999.0
2019-Jul-17 14:45 126 4 gusting 7 30.7-7999.0
2019-Jul-17 14:30 135 4 gusting 8 30.7-7999.0
2019-Jul-17 14:15 157 4 gusting 8 30.5-7999.0
2019-Jul-17 13:45 154 5 gusting 9 30.1-7999.0
2019-Jul-17 13:30 159 4 gusting 8 30.1-7999.0
2019-Jul-17 13:15 144 2 gusting 4 29.7-7999.0
2019-Jul-17 12:45 169 0 gusting 1 29.0-7999.0
2019-Jul-17 12:30 113 27.0-7999.0
2019-Jul-17 12:15 290 0 gusting 1 25.0-7999.0
2019-Jul-17 11:45 305 1 gusting 2 22.6-7999.0
2019-Jul-17 11:30 322 1 gusting 2 21.6-7999.0
2019-Jul-17 11:15 322 2 gusting 2 21.3-7999.0
2019-Jul-17 10:45 050 1 gusting 2 21.3-7999.0
2019-Jul-17 10:30 008 1 gusting 1 21.4-7999.0
2019-Jul-17 10:15 238 1 gusting 1 21.4-7999.0
2019-Jul-17 09:45 019 0 gusting 1 21.4-7999.0
2019-Jul-17 09:30 025 1 gusting 1 21.4-7999.0
2019-Jul-17 09:15 071 0 gusting 1 21.8-7999.0
2019-Jul-17 08:45 087 2 gusting 3 22.5-7999.0
2019-Jul-17 08:30 089 2 gusting 3 22.9-7999.0
2019-Jul-17 08:15 095 2 gusting 3 23.2-7999.0
2019-Jul-17 07:45 056 3 gusting 3 22.3-7999.0
2019-Jul-17 07:30 040 3 gusting 3 22.4-7999.0
2019-Jul-17 07:15 034 2 gusting 2 21.8-7999.0
2019-Jul-17 06:45 127 1 gusting 2 23.8-7999.0
2019-Jul-17 06:30 135 2 gusting 3 23.8-7999.0
2019-Jul-17 06:15 121 2 gusting 2 23.6-7999.0
2019-Jul-17 06:00 114 1 gusting 2 23.2-7999.0
2019-Jul-17 05:45 078 2 gusting 2 22.7-7999.0
2019-Jul-17 05:30 084 1 gusting 2 23.5-7999.0
2019-Jul-17 05:15 072 1 gusting 2 23.1-7999.0
2019-Jul-17 04:45 072 1 gusting 2 23.7-7999.0
2019-Jul-17 04:30 079 1 gusting 1 24.0-7999.0
2019-Jul-17 04:15 102 1 gusting 2 24.4-7999.0
2019-Jul-17 03:45 134 1 gusting 2 25.0-7999.0
2019-Jul-17 03:30 111 3 gusting 3 25.1-7999.0
2019-Jul-17 03:15 122 2 gusting 2 25.1-7999.0
2019-Jul-17 02:45 109 3 gusting 3 25.4-7999.0
2019-Jul-17 02:30 101 2 gusting 2 25.5-7999.0
2019-Jul-17 02:15 105 3 gusting 4 25.7-7999.0
2019-Jul-17 02:00 083 3 gusting 4 25.7-7999.0
2019-Jul-17 01:45 079 3 gusting 4 26.0-7999.0
2019-Jul-17 01:30 082 3 gusting 4 26.1-7999.0
2019-Jul-17 01:15 074 3 gusting 4 26.4-7999.0
2019-Jul-17 01:00 089 4 gusting 4 26.7-7999.0
2019-Jul-17 00:45 088 4 gusting 5 27.0-7999.0
2019-Jul-17 00:30 096 4 gusting 5 27.6-7999.0
2019-Jul-17 00:15 103 4 gusting 6 28.3-7999.0
2019-Jul-17 00:00 099 5 gusting 7 29.1-7999.0
2019-Jul-16 23:45 101 5 gusting 9 29.1-7999.0
2019-Jul-16 23:30 111 7 gusting 10 29.6-7999.0
2019-Jul-16 23:15 114 7 gusting 9 30.3-7999.0
2019-Jul-16 22:45 110 7 gusting 11 30.7-7999.0
2019-Jul-16 22:30 105 7 gusting 11 31.2-7999.0
2019-Jul-16 22:15 118 8 gusting 10 31.3-7999.0
2019-Jul-16 21:45 112 8 gusting 12 31.6-7999.0
2019-Jul-16 21:30 119 7 gusting 12 31.6-7999.0
2019-Jul-16 21:15 094 7 gusting 11 31.6-7999.0
2019-Jul-16 20:45 184 2 gusting 6 30.5-7999.0
2019-Jul-16 20:30 231 2 gusting 5 30.3-7999.0
2019-Jul-16 20:15 133 5 gusting 9 30.9-7999.0
2019-Jul-16 19:45 113 7 gusting 10 31.3-7999.0
2019-Jul-16 19:30 112 7 gusting 10 31.2-7999.0
2019-Jul-16 19:15 101 6 gusting 12 32.0-7999.0
2019-Jul-16 18:45 105 6 gusting 10 33.2-7999.0
2019-Jul-16 18:30 101 8 gusting 12 33.1-7999.0
2019-Jul-16 18:15 116 6 gusting 11 31.3-7999.0
2019-Jul-16 17:45 156 5 gusting 8 30.6-7999.0
2019-Jul-16 17:30 124 8 gusting 10 30.9-7999.0
2019-Jul-16 17:15 036 6 gusting 9 31.2-7999.0